Aeroporto :
LOGIN :

Iscrizione | Disclaimer

   EN    FR    IT 

 










Sommario :    VFR   VFR Marginale   IFR   IFR Intensivo   IFR Molto Intensivo
Visibilità : 
Base nubi : 
>= 8 km
>= 3000ft
5 / 8 km
1000 / 3000 ft
1500m / 5 km
500 / 1000 ft
800 / 1500m
200 / 500 ft
< 800m
< 200 ft
Simboli :   Temporali  Nebbia  Neve Forte  Precipitazioni Forti  Vento > 20 kt
SIGMETs :   Varie  Temporali  Ghiacco  Turbolenza  Onda orograficha  Ceneri Vulcaniche






- Altitudine del aeroporto : 161 ft
- Codice IATA : PMF


LIMP - Parma

ULTIMO METAR :
  • 151650Z 11004KT 070V170 9999 SCT050 30/19 Q1010

METARs OBSOLETI :
  • 151550Z 02003KT 9999 SCT050 31/19 Q1011
  • 151450Z 04004KT 010V070 9999 FEW040 31/19 Q1011

TAF TAF LIMP
Valido dal 15 a 12 ore il 16 a 12 ore UTC


151100Z 1512/1612 VRB05KT 9999 SCT030
PROB30
TEMPO 1512/1517 TSRA



MetMap, La meteo Aeronautica in un colpo d'occhio ! - Copyright ORBIFLY Dicembre 2007 - Disclaimer

ORBIFLY MET'MAP TEAM :

Programmazione e sviluppo : Alexandra Zaïnal
Concezione : Baudouin d'Aumeries
Aiuto per la programmazione : Marc-Olivier Méhu
Supporto tecnico e logistico : Manuel Goepfert
Aiuto per la traduzione : Arnaldo La Scala

Contatto : metmap@orbifly.com




FONTI E CREDITI :

   NOAA